createdAt,value
2018-12-18T00:00:58.491Z,86.14
2018-12-18T00:03:29.601Z,86.40
2018-12-18T00:06:00.590Z,85.68
2018-12-18T00:08:29.478Z,87.11
2018-12-18T00:11:03.505Z,86.01
2018-12-18T00:13:32.907Z,86.17
2018-12-18T00:16:01.801Z,86.59
2018-12-18T00:18:30.742Z,85.79
2018-12-18T00:20:59.750Z,85.92
2018-12-18T00:23:29.200Z,85.61
2018-12-18T00:25:58.160Z,85.61
2018-12-18T00:28:27.108Z,85.20
2018-12-18T00:30:56.019Z,84.48
2018-12-18T00:33:25.023Z,84.43
2018-12-18T00:35:53.989Z,83.36
2018-12-18T00:38:22.957Z,82.46
2018-12-18T00:40:51.857Z,83.23
2018-12-18T00:43:20.842Z,82.87
2018-12-18T00:45:50.073Z,84.06
2018-12-18T00:48:19.090Z,85.46
2018-12-18T00:50:48.154Z,85.15
2018-12-18T00:53:17.131Z,84.97
2018-12-18T00:55:46.373Z,86.62
2018-12-18T00:58:15.273Z,86.97
2018-12-18T01:00:44.269Z,87.42
2018-12-18T01:03:13.239Z,87.38
2018-12-18T01:05:42.316Z,87.52
2018-12-18T01:08:11.347Z,88.21
2018-12-18T01:10:40.399Z,88.29
2018-12-18T01:13:09.539Z,87.67
2018-12-18T01:15:38.513Z,87.76
2018-12-18T01:18:07.506Z,88.07
2018-12-18T01:20:36.440Z,88.04
2018-12-18T01:23:05.388Z,88.33
2018-12-18T01:25:34.332Z,88.59
2018-12-18T01:28:03.334Z,87.35
2018-12-18T01:30:32.269Z,88.06
2018-12-18T01:33:01.185Z,87.77
2018-12-18T01:35:31.166Z,87.15
2018-12-18T01:38:00.994Z,87.38
2018-12-18T01:40:30.044Z,86.75
2018-12-18T01:42:58.913Z,87.25
2018-12-18T01:45:28.727Z,87.56
2018-12-18T01:47:57.641Z,87.58
2018-12-18T01:50:26.554Z,87.98
2018-12-18T01:52:55.502Z,87.81
2018-12-18T01:55:24.600Z,87.57
2018-12-18T01:57:53.485Z,87.72
2018-12-18T02:00:22.391Z,87.90
2018-12-18T02:02:51.319Z,87.67
2018-12-18T02:05:20.287Z,87.90
2018-12-18T02:07:49.190Z,87.27
2018-12-18T02:10:18.166Z,87.51
2018-12-18T02:12:47.058Z,86.97
2018-12-18T02:15:16.042Z,87.33
2018-12-18T02:17:45.190Z,88.00
2018-12-18T02:20:14.126Z,87.48
2018-12-18T02:22:43.017Z,87.42
2018-12-18T02:25:13.001Z,87.92
2018-12-18T02:27:41.915Z,88.00
2018-12-18T02:30:11.176Z,87.49
2018-12-18T02:32:40.135Z,87.94
2018-12-18T02:35:09.098Z,87.57
2018-12-18T02:37:38.034Z,87.55
2018-12-18T02:40:07.606Z,87.33
2018-12-18T02:42:36.631Z,87.70
2018-12-18T02:45:06.507Z,88.19
2018-12-18T02:47:35.439Z,88.09
2018-12-18T02:50:04.700Z,87.89
2018-12-18T02:52:33.624Z,88.36
2018-12-18T02:55:02.539Z,88.70
2018-12-18T02:57:31.519Z,89.64
2018-12-18T03:00:00.478Z,88.77
2018-12-18T03:02:29.369Z,88.33
2018-12-18T03:04:58.493Z,87.56
2018-12-18T03:07:27.397Z,87.48
2018-12-18T03:09:56.298Z,87.46
2018-12-18T03:12:26.132Z,87.46
2018-12-18T03:14:55.087Z,86.85
2018-12-18T03:17:24.235Z,86.77
2018-12-18T03:19:53.176Z,86.93
2018-12-18T03:22:22.719Z,87.05
2018-12-18T03:24:51.628Z,87.37
2018-12-18T03:27:20.728Z,87.28
2018-12-18T03:29:49.617Z,87.88
2018-12-18T03:32:23.508Z,87.67
2018-12-18T03:34:52.398Z,86.90
2018-12-18T03:37:21.342Z,87.33
2018-12-18T03:39:50.205Z,87.92
2018-12-18T03:42:19.365Z,88.39
2018-12-18T03:44:48.291Z,88.12
2018-12-18T03:47:17.270Z,87.33
2018-12-18T03:49:46.218Z,86.96
2018-12-18T03:52:15.069Z,86.88
2018-12-18T03:54:44.095Z,87.02
2018-12-18T03:57:13.023Z,87.68
2018-12-18T03:59:42.180Z,88.42
2018-12-18T04:02:11.247Z,88.18
2018-12-18T04:04:40.222Z,88.54
2018-12-18T04:07:09.265Z,88.20
2018-12-18T04:09:38.580Z,88.07
2018-12-18T04:12:11.666Z,87.35
2018-12-18T04:14:40.593Z,86.89
2018-12-18T04:17:09.469Z,87.22
2018-12-18T04:19:38.519Z,86.88
2018-12-18T04:22:07.383Z,87.23
2018-12-18T04:24:36.298Z,87.67
2018-12-18T04:27:05.178Z,88.20
2018-12-18T04:29:34.273Z,88.16
2018-12-18T04:32:03.213Z,88.27
2018-12-18T04:34:32.237Z,87.73
2018-12-18T04:37:01.202Z,88.22
2018-12-18T04:39:30.126Z,89.06
2018-12-18T04:41:59.078Z,89.03
2018-12-18T04:44:28.038Z,89.46
2018-12-18T04:46:56.971Z,89.04
2018-12-18T04:49:25.967Z,88.24
2018-12-18T04:51:54.904Z,87.63
2018-12-18T04:54:23.778Z,87.87
2018-12-18T04:56:52.826Z,87.91
2018-12-18T04:59:21.843Z,88.22
2018-12-18T05:01:50.772Z,87.94
2018-12-18T05:04:19.707Z,88.66
2018-12-18T05:06:48.630Z,88.53
2018-12-18T05:09:17.591Z,89.15
2018-12-18T05:11:46.581Z,88.33
2018-12-18T05:14:15.474Z,88.78
2018-12-18T05:16:44.430Z,88.87
2018-12-18T05:19:13.292Z,89.08
2018-12-18T05:21:42.322Z,88.99
2018-12-18T05:24:11.303Z,89.02
2018-12-18T05:26:40.303Z,90.19
2018-12-18T05:29:09.281Z,89.98
2018-12-18T05:31:38.218Z,90.05
2018-12-18T05:34:07.307Z,90.11
2018-12-18T05:36:36.826Z,90.02
2018-12-18T05:39:07.291Z,89.75
2018-12-18T05:41:36.275Z,89.25
2018-12-18T05:44:08.318Z,88.82
2018-12-18T05:46:37.190Z,89.79
2018-12-18T05:49:06.094Z,89.98
2018-12-18T05:51:35.090Z,90.34
2018-12-18T05:54:04.178Z,90.43
2018-12-18T05:56:33.262Z,90.50
2018-12-18T05:59:02.105Z,90.47
2018-12-18T06:01:31.080Z,90.00
2018-12-18T06:04:00.082Z,89.01
2018-12-18T06:06:29.996Z,89.75
2018-12-18T06:08:58.978Z,90.18
2018-12-18T06:11:27.948Z,90.53
2018-12-18T06:13:57.243Z,90.51
2018-12-18T06:16:26.135Z,91.07
2018-12-18T06:18:55.153Z,90.62
2018-12-18T06:21:24.081Z,90.12
2018-12-18T06:23:53.164Z,89.78
2018-12-18T06:26:22.128Z,90.08
2018-12-18T06:28:50.994Z,90.55
2018-12-18T06:31:19.934Z,90.41
2018-12-18T06:33:48.859Z,89.44
2018-12-18T06:36:17.914Z,89.21
2018-12-18T06:38:46.785Z,89.08
2018-12-18T06:41:15.897Z,89.74
2018-12-18T06:43:44.945Z,89.93
2018-12-18T06:46:14.028Z,90.23
2018-12-18T06:48:42.886Z,89.58
2018-12-18T06:51:11.918Z,89.00
2018-12-18T06:53:40.839Z,88.66
2018-12-18T06:56:09.823Z,88.37
2018-12-18T06:58:38.735Z,88.69
2018-12-18T07:01:07.690Z,88.87
2018-12-18T07:03:36.669Z,88.60
2018-12-18T07:06:05.669Z,88.60
2018-12-18T07:08:34.658Z,89.08
2018-12-18T07:11:03.685Z,89.46
2018-12-18T07:13:32.682Z,90.21
2018-12-18T07:16:01.705Z,91.11
2018-12-18T07:18:30.664Z,91.20
2018-12-18T07:20:59.673Z,91.69
2018-12-18T07:23:28.623Z,90.99
2018-12-18T07:25:57.608Z,90.15
2018-12-18T07:28:26.506Z,89.54
2018-12-18T07:30:55.734Z,88.46
2018-12-18T07:33:24.822Z,88.91
2018-12-18T07:35:53.718Z,88.63
2018-12-18T07:38:22.736Z,87.70
2018-12-18T07:40:51.769Z,87.65
2018-12-18T07:43:20.821Z,87.52
2018-12-18T07:45:49.806Z,86.69
2018-12-18T07:48:18.840Z,86.13
2018-12-18T07:50:47.783Z,87.91
2018-12-18T07:53:16.838Z,85.95
2018-12-18T07:55:45.885Z,84.19
2018-12-18T07:58:14.821Z,82.80
2018-12-18T08:00:43.857Z,82.55
2018-12-18T08:03:12.818Z,81.45
2018-12-18T08:05:41.734Z,81.64
2018-12-18T08:08:10.694Z,81.47
2018-12-18T08:10:40.659Z,81.67
2018-12-18T08:13:09.562Z,82.35
2018-12-18T08:15:38.567Z,81.71
2018-12-18T08:18:07.478Z,81.20
2018-12-18T08:20:36.379Z,81.02
2018-12-18T08:23:05.397Z,81.08
2018-12-18T08:25:34.370Z,80.84
2018-12-18T08:28:03.492Z,80.86
2018-12-18T08:30:32.442Z,79.83
2018-12-18T08:33:01.379Z,80.00
2018-12-18T08:35:36.286Z,80.18
2018-12-18T08:38:01.334Z,79.45
2018-12-18T08:40:30.209Z,82.70
2018-12-18T08:42:59.128Z,67.43
2018-12-18T08:45:28.065Z,65.11
2018-12-18T08:47:57.025Z,63.84
2018-12-18T08:50:26.070Z,64.88
2018-12-18T08:52:55.019Z,65.74
2018-12-18T08:55:23.914Z,64.79
2018-12-18T08:57:52.821Z,65.16
2018-12-18T09:00:21.771Z,64.77
2018-12-18T09:02:50.707Z,64.95
2018-12-18T09:05:19.654Z,64.21
2018-12-18T09:07:48.610Z,64.52
2018-12-18T09:10:17.920Z,64.77
2018-12-18T09:12:46.838Z,64.66
2018-12-18T09:15:21.179Z,64.35
2018-12-18T09:17:50.146Z,64.70
2018-12-18T09:20:19.237Z,64.67
2018-12-18T09:22:48.769Z,64.28
2018-12-18T09:25:17.708Z,63.24
2018-12-18T09:27:46.754Z,64.19
2018-12-18T09:33:12.951Z,67.20
2018-12-18T09:35:41.863Z,69.59
2018-12-18T09:38:17.374Z,71.26
2018-12-18T09:40:51.689Z,72.19
2018-12-18T09:43:26.022Z,71.94
2018-12-18T09:45:54.952Z,72.22
2018-12-18T09:48:23.890Z,71.82
2018-12-18T09:50:52.828Z,71.25
2018-12-18T09:53:21.719Z,70.92
2018-12-18T09:55:50.858Z,71.12
2018-12-18T09:58:19.841Z,69.60
2018-12-18T10:00:48.889Z,69.86
2018-12-18T10:03:17.809Z,69.63
2018-12-18T10:05:46.934Z,69.66
2018-12-18T10:08:15.890Z,68.85
2018-12-18T10:10:44.816Z,69.03
2018-12-18T10:13:13.789Z,68.95
2018-12-18T10:15:42.799Z,69.17
2018-12-18T10:18:11.737Z,68.55
2018-12-18T10:20:40.640Z,68.43
2018-12-18T10:23:09.568Z,67.68
2018-12-18T10:25:38.449Z,68.38
2018-12-18T10:28:07.412Z,67.23
2018-12-18T10:30:36.438Z,67.47
2018-12-18T10:33:06.177Z,67.14
2018-12-18T10:35:36.610Z,67.89
2018-12-18T10:38:05.823Z,67.19
2018-12-18T10:40:34.849Z,67.33
2018-12-18T10:43:03.898Z,67.20
2018-12-18T10:45:34.336Z,67.35
2018-12-18T10:48:03.242Z,67.37
2018-12-18T10:50:32.215Z,67.15
2018-12-18T10:53:01.095Z,67.68
2018-12-18T10:55:30.019Z,67.34
2018-12-18T10:57:59.090Z,68.08
2018-12-18T11:00:33.463Z,67.46
2018-12-18T11:03:02.415Z,67.43
2018-12-18T11:05:31.499Z,67.98
2018-12-18T11:08:00.502Z,66.60
2018-12-18T11:10:29.451Z,66.87
2018-12-18T11:13:03.802Z,67.47
2018-12-18T11:15:33.819Z,66.84
2018-12-18T11:18:02.945Z,67.01
2018-12-18T11:20:31.961Z,66.71
2018-12-18T11:23:00.854Z,65.95
2018-12-18T11:25:29.911Z,66.34
2018-12-18T11:27:58.891Z,65.96
2018-12-18T11:30:27.958Z,65.71
2018-12-18T11:32:56.917Z,65.85
2018-12-18T11:35:25.931Z,65.70
2018-12-18T11:37:54.811Z,65.48
2018-12-18T11:40:23.851Z,65.86
2018-12-18T11:42:52.897Z,65.11
2018-12-18T11:45:21.786Z,65.28
2018-12-18T11:47:50.702Z,64.26
2018-12-18T11:50:19.668Z,64.92
2018-12-18T11:52:48.619Z,65.31
2018-12-18T11:55:17.531Z,65.33
2018-12-18T11:57:46.482Z,63.64
2018-12-18T12:00:17.304Z,63.63
2018-12-18T12:02:46.246Z,63.67
2018-12-18T12:05:17.242Z,63.45
2018-12-18T12:07:46.180Z,63.59
2018-12-18T12:10:15.125Z,62.09
2018-12-18T12:12:45.699Z,62.22
2018-12-18T12:15:14.952Z,61.91
2018-12-18T12:17:43.910Z,62.16
2018-12-18T12:20:12.939Z,62.94
2018-12-18T12:22:41.897Z,62.57
2018-12-18T12:25:10.819Z,62.64
2018-12-18T12:27:45.347Z,62.39
2018-12-18T12:30:14.538Z,61.91
2018-12-18T12:32:43.457Z,62.31
2018-12-18T12:35:12.367Z,62.12
2018-12-18T12:37:41.423Z,61.37
2018-12-18T12:40:10.308Z,62.47
2018-12-18T12:42:39.814Z,60.42
2018-12-18T12:45:08.772Z,59.86
2018-12-18T12:47:37.795Z,60.47
2018-12-18T12:50:07.671Z,60.84
2018-12-18T12:52:36.758Z,59.86
2018-12-18T12:55:06.569Z,59.54
2018-12-18T12:57:35.526Z,58.79
2018-12-18T13:00:04.737Z,58.48
2018-12-18T13:02:33.654Z,57.50
2018-12-18T13:05:02.585Z,57.99
2018-12-18T13:07:31.472Z,57.35
2018-12-18T13:10:00.557Z,57.04
2018-12-18T13:12:30.502Z,57.89
2018-12-18T13:14:59.499Z,57.50
2018-12-18T13:17:28.430Z,57.36
2018-12-18T13:19:57.448Z,57.25
2018-12-18T13:22:36.645Z,58.78
2018-12-18T13:25:06.758Z,58.43
2018-12-18T13:27:36.211Z,57.89
2018-12-18T13:30:06.019Z,57.72
2018-12-18T13:32:34.941Z,57.56
2018-12-18T13:35:04.111Z,57.78
2018-12-18T13:37:33.112Z,57.55
2018-12-18T13:40:02.067Z,58.41
2018-12-18T13:42:31.015Z,58.87
2018-12-18T13:44:59.874Z,58.96
2018-12-18T13:47:29.081Z,58.68
2018-12-18T13:49:58.073Z,58.59
2018-12-18T13:52:27.042Z,59.46
2018-12-18T13:54:56.059Z,60.29
2018-12-18T13:57:24.990Z,60.27
2018-12-18T13:59:53.919Z,61.31
2018-12-18T14:02:22.926Z,61.83
2018-12-18T14:04:51.900Z,62.64
2018-12-18T14:07:20.903Z,62.79
2018-12-18T14:09:49.957Z,63.46
2018-12-18T14:12:18.901Z,63.59
2018-12-18T14:14:47.789Z,63.32
2018-12-18T14:17:16.945Z,63.60
2018-12-18T14:19:45.851Z,63.78
2018-12-18T14:22:14.810Z,64.22
2018-12-18T14:24:43.754Z,63.84
2018-12-18T14:27:12.747Z,65.20
2018-12-18T14:29:41.732Z,65.96
2018-12-18T14:32:10.706Z,66.53
2018-12-18T14:37:14.555Z,68.83
2018-12-18T14:39:43.546Z,70.84
2018-12-18T14:42:12.525Z,71.90
2018-12-18T14:44:41.542Z,71.24
2018-12-18T14:47:10.426Z,73.24
2018-12-18T14:49:39.338Z,72.83
2018-12-18T14:52:08.482Z,72.94
2018-12-18T14:54:37.623Z,72.68
2018-12-18T14:57:06.567Z,73.87
2018-12-18T14:59:35.625Z,73.75
2018-12-18T15:02:04.772Z,74.08
2018-12-18T15:04:33.780Z,74.57
2018-12-18T15:07:03.215Z,75.19
2018-12-18T15:09:32.218Z,75.04
2018-12-18T15:12:01.257Z,75.19
2018-12-18T15:14:30.143Z,75.40
2018-12-18T15:16:59.153Z,73.65
2018-12-18T15:19:28.050Z,74.37
2018-12-18T15:21:57.009Z,74.04
2018-12-18T15:24:26.023Z,75.03
2018-12-18T15:26:54.978Z,74.84
2018-12-18T15:29:24.006Z,75.21
2018-12-18T15:31:53.955Z,75.70
2018-12-18T15:34:22.905Z,76.81
2018-12-18T15:36:51.919Z,76.81
2018-12-18T15:39:21.210Z,77.09
2018-12-18T15:41:50.184Z,77.32
2018-12-18T15:44:19.090Z,78.33
2018-12-18T15:46:48.151Z,78.44
2018-12-18T15:49:17.225Z,79.11
2018-12-18T15:51:46.155Z,79.94
2018-12-18T15:54:15.186Z,78.93
2018-12-18T15:56:44.380Z,78.82
2018-12-18T15:59:13.317Z,78.88
2018-12-18T16:01:42.230Z,78.55
2018-12-18T16:04:11.219Z,78.67
2018-12-18T16:06:40.218Z,78.61
2018-12-18T16:09:09.371Z,78.85
2018-12-18T16:11:38.405Z,79.36
2018-12-18T16:14:07.368Z,79.90
2018-12-18T16:16:36.485Z,80.25
2018-12-18T16:19:05.471Z,81.15
2018-12-18T16:21:34.442Z,81.19
2018-12-18T16:24:03.340Z,81.60
2018-12-18T16:26:32.632Z,80.84
2018-12-18T16:29:01.687Z,80.82
2018-12-18T16:31:30.795Z,81.83
2018-12-18T16:34:00.795Z,81.94
2018-12-18T16:36:29.742Z,82.08
2018-12-18T16:38:58.908Z,82.46
2018-12-18T16:41:27.849Z,82.93
2018-12-18T16:43:56.797Z,82.92
2018-12-18T16:46:25.719Z,82.78
2018-12-18T16:48:54.619Z,83.23
2018-12-18T16:51:23.571Z,83.73
2018-12-18T16:53:52.454Z,83.80
2018-12-18T16:56:21.472Z,83.68
2018-12-18T16:58:50.706Z,83.69
2018-12-18T17:01:19.691Z,85.29
2018-12-18T17:03:48.682Z,85.17
2018-12-18T17:06:17.686Z,83.77
2018-12-18T17:08:46.651Z,83.00
2018-12-18T17:11:15.661Z,83.77
2018-12-18T17:13:44.613Z,84.39
2018-12-18T17:16:13.595Z,84.52
2018-12-18T17:18:42.542Z,84.91
2018-12-18T17:21:11.506Z,84.87
2018-12-18T17:23:40.485Z,85.77
2018-12-18T17:26:09.367Z,85.58
2018-12-18T17:28:38.339Z,85.20
2018-12-18T17:31:07.397Z,85.68
2018-12-18T17:33:36.395Z,85.43
2018-12-18T17:36:05.440Z,85.08
2018-12-18T17:38:34.366Z,85.47
2018-12-18T17:41:03.230Z,85.51
2018-12-18T17:43:32.559Z,85.38
2018-12-18T17:46:01.654Z,85.18
2018-12-18T17:48:30.698Z,85.16
2018-12-18T17:50:59.640Z,85.40
2018-12-18T17:53:28.622Z,85.73
2018-12-18T17:55:57.557Z,86.62
2018-12-18T17:58:27.074Z,87.35
2018-12-18T18:00:55.994Z,87.18
2018-12-18T18:03:24.907Z,87.39
2018-12-18T18:05:53.884Z,87.43
2018-12-18T18:08:22.824Z,87.29
2018-12-18T18:10:51.807Z,87.41
2018-12-18T18:13:20.928Z,87.61
2018-12-18T18:15:49.899Z,87.70
2018-12-18T18:18:18.885Z,88.60
2018-12-18T18:20:47.846Z,89.09
2018-12-18T18:23:16.880Z,89.77
2018-12-18T18:25:45.919Z,90.34
2018-12-18T18:28:14.921Z,89.61
2018-12-18T18:30:43.811Z,88.98
2018-12-18T18:33:12.835Z,89.58
2018-12-18T18:35:41.950Z,91.08
2018-12-18T18:38:10.844Z,91.79
2018-12-18T18:40:39.774Z,92.25
2018-12-18T18:43:08.692Z,92.39
2018-12-18T18:45:37.692Z,92.34
2018-12-18T18:48:06.667Z,92.40
2018-12-18T18:50:35.734Z,92.10
2018-12-18T18:53:04.653Z,92.17
2018-12-18T18:55:33.765Z,91.86
2018-12-18T18:58:02.759Z,92.42
2018-12-18T19:00:31.720Z,92.14
2018-12-18T19:03:00.702Z,91.52
2018-12-18T19:05:29.726Z,91.62
2018-12-18T19:07:58.895Z,91.02
2018-12-18T19:10:27.778Z,91.43
2018-12-18T19:12:59.989Z,91.07
2018-12-18T19:15:29.076Z,90.93
2018-12-18T19:17:58.069Z,91.50
2018-12-18T19:20:27.070Z,90.82
2018-12-18T19:22:56.035Z,89.98
2018-12-18T19:25:25.862Z,89.94
2018-12-18T19:27:54.842Z,90.18
2018-12-18T19:30:23.777Z,90.36
2018-12-18T19:32:52.719Z,91.34
2018-12-18T19:35:21.657Z,90.98
2018-12-18T19:37:50.613Z,91.36
2018-12-18T19:40:19.483Z,90.93
2018-12-18T19:42:48.486Z,90.55
2018-12-18T19:45:17.394Z,90.71
2018-12-18T19:47:46.426Z,90.77
2018-12-18T19:50:15.408Z,90.39
2018-12-18T19:52:44.337Z,90.39
2018-12-18T19:55:13.511Z,89.48
2018-12-18T19:57:42.531Z,89.71
2018-12-18T20:00:11.865Z,89.95
2018-12-18T20:02:40.993Z,89.32
2018-12-18T20:05:10.126Z,88.91
2018-12-18T20:07:39.070Z,89.57
2018-12-18T20:10:08.066Z,90.18
2018-12-18T20:12:37.142Z,89.58
2018-12-18T20:15:06.229Z,89.79
2018-12-18T20:17:35.165Z,90.38
2018-12-18T20:20:05.242Z,89.78
2018-12-18T20:22:36.255Z,89.39
2018-12-18T20:25:05.962Z,88.81
2018-12-18T20:27:36.722Z,88.21
2018-12-18T20:30:06.069Z,88.85
2018-12-18T20:32:35.137Z,89.02
2018-12-18T20:35:04.271Z,88.93
2018-12-18T20:37:33.182Z,89.09
2018-12-18T20:40:02.257Z,88.47
2018-12-18T20:42:31.319Z,88.62
2018-12-18T20:45:00.308Z,89.27
2018-12-18T20:47:29.246Z,89.15
2018-12-18T20:49:58.289Z,88.62
2018-12-18T20:52:27.463Z,89.23
2018-12-18T20:54:56.465Z,89.16
2018-12-18T20:57:25.465Z,89.16
2018-12-18T20:59:55.633Z,89.39
2018-12-18T21:02:24.834Z,89.60
2018-12-18T21:04:54.103Z,89.64
2018-12-18T21:07:23.423Z,89.17
2018-12-18T21:09:52.334Z,88.98
2018-12-18T21:12:21.282Z,88.56
2018-12-18T21:14:50.316Z,88.88
2018-12-18T21:17:19.414Z,89.14
2018-12-18T21:19:48.488Z,88.99
2018-12-18T21:22:18.510Z,89.24
2018-12-18T21:24:47.454Z,89.11
2018-12-18T21:27:16.411Z,88.72
2018-12-18T21:29:45.396Z,89.23
2018-12-18T21:32:14.466Z,89.85
2018-12-18T21:34:43.621Z,90.51
2018-12-18T21:37:12.790Z,90.51
2018-12-18T21:39:42.593Z,90.85
2018-12-18T21:42:11.815Z,91.13
2018-12-18T21:44:41.141Z,90.75
2018-12-18T21:47:10.072Z,90.46
2018-12-18T21:49:39.129Z,90.76
2018-12-18T21:52:08.035Z,90.51
2018-12-18T21:54:37.012Z,91.13
2018-12-18T21:57:05.958Z,90.71
2018-12-18T21:59:36.027Z,90.35
2018-12-18T22:02:05.115Z,90.83
2018-12-18T22:04:34.053Z,90.54
2018-12-18T22:07:02.951Z,90.45
2018-12-18T22:09:31.983Z,90.50
2018-12-18T22:12:01.474Z,90.73
2018-12-18T22:14:31.502Z,90.56
2018-12-18T22:17:00.482Z,91.02
2018-12-18T22:19:31.070Z,91.37
2018-12-18T22:21:59.973Z,91.28
2018-12-18T22:24:28.942Z,90.87
2018-12-18T22:26:57.877Z,90.92
2018-12-18T22:29:26.929Z,91.50
2018-12-18T22:31:55.872Z,91.41
2018-12-18T22:34:24.785Z,91.67
2018-12-18T22:36:53.786Z,92.12
2018-12-18T22:39:22.858Z,91.76
2018-12-18T22:41:51.807Z,92.17
2018-12-18T22:44:20.834Z,91.58
2018-12-18T22:46:49.787Z,91.56
2018-12-18T22:49:18.845Z,91.94
2018-12-18T22:51:47.897Z,92.22
2018-12-18T22:54:16.853Z,91.75
2018-12-18T22:56:45.936Z,95.13
2018-12-18T22:59:14.892Z,91.68
2018-12-18T23:01:44.870Z,86.93
2018-12-18T23:04:15.269Z,81.07
2018-12-18T23:06:44.334Z,77.17
2018-12-18T23:09:15.150Z,75.42
2018-12-18T23:11:44.213Z,74.28
2018-12-18T23:14:15.709Z,72.06
2018-12-18T23:16:45.614Z,72.75
2018-12-18T23:19:14.543Z,71.66
2018-12-18T23:21:43.622Z,71.94
2018-12-18T23:24:12.528Z,71.30
2018-12-18T23:26:41.476Z,70.94
2018-12-18T23:29:10.422Z,71.49
2018-12-18T23:31:40.215Z,70.56
2018-12-18T23:34:09.224Z,69.74
2018-12-18T23:36:38.165Z,69.96
2018-12-18T23:39:08.668Z,70.15
2018-12-18T23:41:38.659Z,70.30
2018-12-18T23:44:07.637Z,69.27
2018-12-18T23:46:36.572Z,68.94
2018-12-18T23:49:05.546Z,68.82
2018-12-18T23:51:34.529Z,68.93
2018-12-18T23:54:03.508Z,68.54
2018-12-18T23:56:33.042Z,68.61
2018-12-18T23:59:01.991Z,68.90
